Time;durP1;ratioP1;P1;durP2;ratioP2;P2;SDS_P1;SDS_P2;PMS_P1;PMS_P2;Temp;Humidity;BMP_temperature;BMP_pressure;BME280_temperature;BME280_humidity;BME280_pressure;Samples;Min_cycle;Max_cycle;Signal;HPM_P1;HPM_P2
2024/03/10 00:02:00;;;;;;;28.58;15.57;;;5.30;86.30;;;;;;5057469;28;20078;-50
2024/03/10 00:04:26;;;;;;;30.15;15.70;;;5.20;86.80;;;;;;5058353;28;20021;-51
2024/03/10 00:06:51;;;;;;;39.35;19.17;;;5.10;87.20;;;;;;5058250;28;20410;-50
2024/03/10 00:09:17;;;;;;;31.92;15.68;;;5.10;87.30;;;;;;5055194;28;20032;-50
2024/03/10 00:11:46;;;;;;;32.03;16.15;;;5.00;88.30;;;;;;5056252;28;20635;-50
2024/03/10 00:14:12;;;;;;;33.35;17.38;;;4.90;88.70;;;;;;5055943;28;20663;-52
2024/03/10 00:16:37;;;;;;;33.08;17.42;;;4.80;89.00;;;;;;5056024;28;20043;-54
2024/03/10 00:19:03;;;;;;;33.05;18.00;;;4.80;90.10;;;;;;5056573;28;20025;-53
2024/03/10 00:21:29;;;;;;;36.58;19.40;;;4.80;90.40;;;;;;5056268;28;20013;-51
2024/03/10 00:23:55;;;;;;;36.55;17.80;;;4.70;90.10;;;;;;5057693;28;20740;-51
2024/03/10 00:26:20;;;;;;;35.47;17.85;;;4.70;91.10;;;;;;5056803;28;20024;-51
2024/03/10 00:28:49;;;;;;;39.17;20.17;;;4.60;91.10;;;;;;5057109;28;20041;-52
2024/03/10 00:31:18;;;;;;;34.55;17.88;;;4.60;91.40;;;;;;5057202;28;20120;-50
2024/03/10 00:33:44;;;;;;;35.80;18.83;;;4.60;91.70;;;;;;5058065;28;20032;-49
2024/03/10 00:36:10;;;;;;;42.03;19.77;;;4.50;92.00;;;;;;5058930;28;20015;-50
2024/03/10 00:38:36;;;;;;;42.13;20.40;;;4.50;91.80;;;;;;5055937;28;20119;-51
2024/03/10 00:41:02;;;;;;;39.05;20.70;;;4.40;91.80;;;;;;5056335;28;20082;-49
2024/03/10 00:43:28;;;;;;;40.08;20.27;;;4.40;92.30;;;;;;5061682;28;20643;-53
2024/03/10 00:45:54;;;;;;;37.63;19.02;;;4.30;92.90;;;;;;5059840;28;20111;-49
2024/03/10 00:48:19;;;;;;;43.03;21.08;;;4.30;93.60;;;;;;5059601;28;20100;-50
2024/03/10 00:50:48;;;;;;;44.50;20.27;;;4.30;93.20;;;;;;5054924;28;20436;-47
2024/03/10 00:53:14;;;;;;;50.42;24.33;;;4.20;93.50;;;;;;5059742;28;20028;-51
2024/03/10 00:55:39;;;;;;;42.58;22.42;;;4.20;94.00;;;;;;5059238;28;20097;-49
2024/03/10 00:58:05;;;;;;;47.90;21.85;;;4.20;94.20;;;;;;5055611;28;20497;-48
2024/03/10 01:00:32;;;;;;;53.55;26.35;;;4.20;94.80;;;;;;5052258;28;20154;-52
2024/03/10 01:02:58;;;;;;;50.75;24.73;;;4.20;95.20;;;;;;5052434;28;20067;-49
2024/03/10 01:05:24;;;;;;;49.35;23.15;;;4.20;96.00;;;;;;5057135;28;20063;-49
2024/03/10 01:07:49;;;;;;;44.70;22.13;;;4.10;96.40;;;;;;5057450;28;20556;-53
2024/03/10 01:10:15;;;;;;;54.35;26.52;;;4.10;96.30;;;;;;5056440;28;20631;-47
2024/03/10 01:12:40;;;;;;;50.10;25.95;;;4.10;96.70;;;;;;5048627;28;20093;-50
2024/03/10 01:15:07;;;;;;;49.60;24.10;;;4.00;96.70;;;;;;5057378;28;20115;-48
2024/03/10 01:17:33;;;;;;;50.90;23.33;;;4.00;98.80;;;;;;5058614;28;20104;-54
2024/03/10 01:19:58;;;;;;;55.50;27.23;;;4.00;97.80;;;;;;5056436;28;20158;-49
2024/03/10 01:22:27;;;;;;;55.40;26.77;;;3.90;98.20;;;;;;5056422;28;20040;-49
2024/03/10 01:24:52;;;;;;;53.53;25.67;;;3.90;98.10;;;;;;5051910;28;20035;-52
2024/03/10 01:27:18;;;;;;;50.28;26.17;;;3.90;99.80;;;;;;5056584;28;20442;-53
2024/03/10 01:29:44;;;;;;;53.42;26.52;;;3.90;99.90;;;;;;5054524;28;20054;-49
2024/03/10 01:32:09;;;;;;;59.50;27.60;;;3.80;99.90;;;;;;5058657;28;20016;-51
2024/03/10 01:34:36;;;;;;;58.03;27.65;;;3.80;99.90;;;;;;5055075;28;20371;-52
2024/03/10 01:37:02;;;;;;;59.83;28.98;;;3.80;99.90;;;;;;5056980;28;20518;-51
2024/03/10 01:39:27;;;;;;;59.72;27.75;;;3.80;99.90;;;;;;5047452;28;20433;-51
2024/03/10 01:41:54;;;;;;;60.88;29.77;;;3.80;99.90;;;;;;5048239;28;20029;-54
2024/03/10 01:44:20;;;;;;;62.72;29.35;;;3.70;99.90;;;;;;5055683;28;20110;-49
2024/03/10 01:46:47;;;;;;;60.75;27.80;;;3.70;99.90;;;;;;5052699;28;20039;-51
2024/03/10 01:49:13;;;;;;;61.10;27.95;;;3.70;99.90;;;;;;5056422;28;20047;-52
2024/03/10 01:51:41;;;;;;;54.95;28.08;;;3.70;99.90;;;;;;5057985;28;20494;-51
2024/03/10 01:54:10;;;;;;;58.78;30.02;;;3.60;99.90;;;;;;5053922;28;20035;-49
2024/03/10 01:56:37;;;;;;;57.42;27.63;;;3.60;99.90;;;;;;5052172;28;20035;-50
2024/03/10 01:59:04;;;;;;;57.47;26.92;;;3.60;99.90;;;;;;5055977;28;20524;-51
2024/03/10 02:01:31;;;;;;;55.45;27.83;;;3.60;99.90;;;;;;5056092;28;20024;-53
2024/03/10 02:03:57;;;;;;;59.58;29.45;;;3.60;99.90;;;;;;5058999;28;20021;-49
2024/03/10 02:06:22;;;;;;;59.88;24.73;;;3.50;99.90;;;;;;5060660;28;20032;-49
2024/03/10 02:08:48;;;;;;;54.90;25.77;;;3.50;99.90;;;;;;5060100;28;20074;-51
2024/03/10 02:11:14;;;;;;;57.05;25.40;;;3.40;99.90;;;;;;5061587;28;20492;-52
2024/03/10 02:13:43;;;;;;;56.70;25.42;;;3.40;99.90;;;;;;5060147;28;20051;-51
2024/03/10 02:16:11;;;;;;;55.25;26.25;;;3.40;99.90;;;;;;5060485;28;20025;-48
2024/03/10 02:18:38;;;;;;;53.40;25.38;;;3.40;99.90;;;;;;5060267;28;20071;-49
2024/03/10 02:21:04;;;;;;;62.75;28.48;;;3.40;99.90;;;;;;5058993;28;20029;-51
2024/03/10 02:23:40;;;;;;;58.20;27.27;;;3.40;99.90;;;;;;5053862;28;20017;-46
2024/03/10 02:26:05;;;;;;;;;;;3.40;99.90;;;;;;5060145;28;20048;-51
2024/03/10 02:28:36;;;;;;;55.65;25.48;;;3.40;99.90;;;;;;5060301;28;20407;-48
2024/03/10 02:47:35;;;;;;;68.78;31.90;;;3.30;99.90;;;;;;5059598;28;20043;-45
2024/03/10 02:50:01;;;;;;;64.20;29.23;;;3.30;99.90;;;;;;5062122;28;20025;-49
2024/03/10 02:52:27;;;;;;;67.45;32.70;;;3.20;99.90;;;;;;5061642;28;20024;-47
2024/03/10 02:54:54;;;;;;;61.88;31.45;;;3.30;99.90;;;;;;5062480;28;20074;-45
2024/03/10 02:57:19;;;;;;;73.13;32.72;;;3.30;99.90;;;;;;5061947;28;20082;-52
2024/03/10 02:59:45;;;;;;;66.93;32.50;;;3.30;99.90;;;;;;5061529;28;20492;-47
2024/03/10 03:02:11;;;;;;;63.20;30.70;;;3.20;99.90;;;;;;5060371;28;20028;-46
2024/03/10 03:04:38;;;;;;;60.38;29.15;;;3.20;99.90;;;;;;5061883;28;20025;-48
2024/03/10 03:07:04;;;;;;;70.90;32.40;;;3.20;99.90;;;;;;5061688;28;20029;-45
2024/03/10 03:09:29;;;;;;;70.20;30.05;;;3.20;99.90;;;;;;5058965;28;20438;-47
2024/03/10 03:11:56;;;;;;;59.65;27.75;;;3.20;99.90;;;;;;5061057;28;20101;-45
2024/03/10 03:14:22;;;;;;;76.03;33.55;;;3.20;99.90;;;;;;5057049;28;20530;-47
2024/03/10 03:16:48;;;;;;;69.18;32.88;;;3.20;99.90;;;;;;5061161;28;20028;-47
2024/03/10 03:19:13;;;;;;;71.28;33.03;;;3.10;99.90;;;;;;5061519;28;20043;-47
2024/03/10 03:21:39;;;;;;;69.13;33.25;;;3.10;99.90;;;;;;5061351;28;20040;-45
2024/03/10 03:24:08;;;;;;;71.63;33.50;;;3.10;99.90;;;;;;5063208;28;20051;-45
2024/03/10 03:26:36;;;;;;;82.18;36.10;;;3.10;99.90;;;;;;5063201;28;20021;-45
2024/03/10 03:29:04;;;;;;;67.93;33.38;;;3.10;99.90;;;;;;5062426;28;20741;-49
2024/03/10 03:31:29;;;;;;;78.25;36.75;;;3.10;99.90;;;;;;5061701;28;20424;-45
2024/03/10 03:33:56;;;;;;;77.20;33.55;;;3.10;99.90;;;;;;5060717;28;20052;-46
2024/03/10 03:36:21;;;;;;;67.18;31.50;;;3.10;99.90;;;;;;5059991;28;20051;-45
2024/03/10 03:38:47;;;;;;;67.97;31.88;;;3.00;99.90;;;;;;5057811;28;20025;-46
2024/03/10 03:41:12;;;;;;;70.85;33.97;;;3.00;99.90;;;;;;5061164;28;20029;-49
2024/03/10 03:43:38;;;;;;;76.15;35.45;;;3.00;99.90;;;;;;5061538;28;20123;-46
2024/03/10 03:46:04;;;;;;;74.95;34.88;;;2.90;99.90;;;;;;5061126;28;20542;-47
2024/03/10 03:48:30;;;;;;;83.07;38.67;;;2.90;99.90;;;;;;5061161;28;20013;-48
2024/03/10 03:50:56;;;;;;;77.63;34.38;;;2.90;99.90;;;;;;5060822;28;20029;-46
2024/03/10 03:53:22;;;;;;;79.03;37.22;;;2.90;99.90;;;;;;5060429;28;20564;-49
2024/03/10 03:55:47;;;;;;;81.97;37.40;;;2.90;99.90;;;;;;5060843;28;20027;-49
2024/03/10 03:58:13;;;;;;;65.20;31.77;;;2.90;99.90;;;;;;5062130;28;20031;-48
2024/03/10 04:00:38;;;;;;;72.90;31.80;;;2.90;99.90;;;;;;5060486;28;20035;-47
2024/03/10 04:03:04;;;;;;;70.25;32.25;;;2.80;99.90;;;;;;5060554;28;20100;-45
2024/03/10 04:05:29;;;;;;;83.45;36.22;;;2.80;99.90;;;;;;5060733;28;20017;-45
2024/03/10 04:07:55;;;;;;;68.80;31.48;;;2.70;99.90;;;;;;5060246;28;20610;-47
2024/03/10 04:10:21;;;;;;;72.38;33.83;;;2.70;99.90;;;;;;5062269;28;20083;-48
2024/03/10 04:12:47;;;;;;;75.50;32.75;;;2.70;99.90;;;;;;5060140;28;20504;-47
2024/03/10 04:15:12;;;;;;;83.75;37.15;;;2.70;99.90;;;;;;5056349;28;20079;-46
2024/03/10 04:17:38;;;;;;;72.60;32.25;;;2.60;99.90;;;;;;5060504;28;20056;-49
2024/03/10 04:20:12;;;;;;;79.93;35.20;;;2.60;99.90;;;;;;5060166;28;20030;-49
2024/03/10 04:22:39;;;;;;;77.43;33.70;;;2.60;99.90;;;;;;5059942;28;20043;-46
2024/03/10 04:25:07;;;;;;;79.18;34.60;;;2.60;99.90;;;;;;5059715;28;20089;-45
2024/03/10 04:27:35;;;;;;;67.80;32.53;;;2.60;99.90;;;;;;5060233;28;20036;-49
2024/03/10 04:30:01;;;;;;;74.15;33.28;;;2.60;99.90;;;;;;5060331;28;20017;-46
2024/03/10 04:32:26;;;;;;;79.97;34.55;;;2.60;99.90;;;;;;5061710;28;20059;-47
2024/03/10 04:34:52;;;;;;;79.75;35.55;;;2.60;99.90;;;;;;5060048;28;20619;-50
2024/03/10 04:37:18;;;;;;;74.72;33.13;;;2.60;99.90;;;;;;5059919;28;20113;-45
2024/03/10 04:39:43;;;;;;;79.43;35.25;;;2.60;99.90;;;;;;5044424;28;20479;-47
2024/03/10 04:42:10;;;;;;;77.72;35.00;;;2.50;99.90;;;;;;5055790;28;20021;-49
2024/03/10 04:44:36;;;;;;;77.45;36.20;;;2.50;99.90;;;;;;5060004;28;20509;-45
2024/03/10 04:47:02;;;;;;;82.07;36.78;;;2.50;99.90;;;;;;5059692;28;20032;-46
2024/03/10 04:49:27;;;;;;;74.70;35.10;;;2.50;99.90;;;;;;5061542;28;20032;-49
2024/03/10 04:51:53;;;;;;;71.85;31.08;;;2.50;99.90;;;;;;5060120;28;20024;-47
2024/03/10 04:54:18;;;;;;;64.63;29.45;;;2.50;99.90;;;;;;5059285;28;20025;-45
2024/03/10 04:56:45;;;;;;;80.30;33.90;;;2.50;99.90;;;;;;5059605;28;20117;-50
2024/03/10 04:59:11;;;;;;;72.07;32.50;;;2.50;99.90;;;;;;5059653;28;20074;-48
2024/03/10 05:01:36;;;;;;;76.45;34.63;;;2.50;99.90;;;;;;5059669;28;20036;-48
2024/03/10 05:04:02;;;;;;;81.20;36.85;;;2.50;99.90;;;;;;5057929;28;20028;-43
2024/03/10 05:06:27;;;;;;;85.70;37.72;;;2.50;99.90;;;;;;5061584;28;20486;-47
2024/03/10 05:08:53;;;;;;;63.50;29.98;;;2.60;99.90;;;;;;5056284;28;20066;-46
2024/03/10 05:11:19;;;;;;;72.22;33.15;;;2.50;99.90;;;;;;5058936;28;20062;-49
2024/03/10 05:13:45;;;;;;;69.18;30.77;;;2.50;99.90;;;;;;5055291;28;20036;-47
2024/03/10 05:16:16;;;;;;;73.07;32.22;;;2.50;99.90;;;;;;5058835;28;20596;-47
2024/03/10 05:18:41;;;;;;;74.70;32.45;;;2.50;99.90;;;;;;5054030;28;20033;-46
2024/03/10 05:21:07;;;;;;;73.38;34.30;;;2.50;99.90;;;;;;5054995;28;20027;-45
2024/03/10 05:23:32;;;;;;;62.72;29.38;;;2.50;99.90;;;;;;5056898;28;20035;-47
2024/03/10 05:25:59;;;;;;;63.25;29.77;;;2.60;99.90;;;;;;5059196;28;20028;-49
2024/03/10 05:28:24;;;;;;;71.72;33.03;;;2.50;99.90;;;;;;5059312;28;20024;-46
2024/03/10 05:30:50;;;;;;;71.72;33.20;;;2.60;99.90;;;;;;5059260;28;20157;-45
2024/03/10 05:33:17;;;;;;;71.28;32.60;;;2.70;99.90;;;;;;5059406;28;20036;-46
2024/03/10 05:35:42;;;;;;;75.93;32.88;;;2.70;99.90;;;;;;5055607;28;20024;-47
2024/03/10 05:38:08;;;;;;;73.22;32.95;;;2.70;99.90;;;;;;5054005;28;20021;-49
2024/03/10 05:40:33;;;;;;;83.10;36.65;;;2.70;99.90;;;;;;5045333;28;20048;-46
2024/03/10 05:42:59;;;;;;;69.20;33.88;;;2.70;99.90;;;;;;5057305;28;20689;-46
2024/03/10 05:45:24;;;;;;;64.13;29.70;;;2.80;99.90;;;;;;5058714;28;20029;-44
2024/03/10 05:47:50;;;;;;;67.63;31.50;;;2.80;99.90;;;;;;5055003;28;20025;-44
2024/03/10 05:50:16;;;;;;;81.15;34.25;;;2.80;99.90;;;;;;5055454;28;20117;-45
2024/03/10 05:52:42;;;;;;;76.35;35.22;;;2.90;99.90;;;;;;5055427;28;20037;-44
2024/03/10 05:55:08;;;;;;;75.55;34.03;;;2.90;99.90;;;;;;5056747;28;20016;-47
2024/03/10 05:57:33;;;;;;;71.68;34.17;;;3.00;99.90;;;;;;5053211;28;20862;-45
2024/03/10 05:59:59;;;;;;;76.90;35.13;;;3.00;99.90;;;;;;5056336;28;20060;-50
2024/03/10 06:02:25;;;;;;;65.90;31.15;;;3.10;99.90;;;;;;5057971;28;20032;-48
2024/03/10 06:04:50;;;;;;;77.07;35.58;;;3.20;99.90;;;;;;5056466;28;20036;-44
2024/03/10 06:07:16;;;;;;;69.95;31.67;;;3.20;99.90;;;;;;5052216;28;20025;-49
2024/03/10 06:09:41;;;;;;;67.03;30.38;;;3.30;99.90;;;;;;5051791;28;20081;-43
2024/03/10 06:12:07;;;;;;;73.40;33.13;;;3.50;99.90;;;;;;5056714;28;20020;-44
2024/03/10 06:14:33;;;;;;;73.72;34.75;;;3.70;99.90;;;;;;5056004;28;20040;-48
2024/03/10 06:16:59;;;;;;;69.00;33.22;;;3.90;99.90;;;;;;5055692;28;20032;-48
2024/03/10 06:27:41;;;;;;;64.07;30.67;;;5.30;99.90;;;;;;5052541;28;20039;-48
2024/03/10 06:30:11;;;;;;;57.40;29.65;;;5.60;99.90;;;;;;5057526;28;20646;-49
2024/03/10 06:32:37;;;;;;;58.40;30.25;;;6.00;99.90;;;;;;5055652;28;20060;-49
2024/03/10 06:35:03;;;;;;;57.63;30.08;;;6.20;99.90;;;;;;5059772;28;20029;-49
2024/03/10 06:37:29;;;;;;;57.83;30.95;;;6.50;99.90;;;;;;5056458;28;20107;-51
2024/03/10 06:39:54;;;;;;;58.70;30.45;;;6.70;99.90;;;;;;5050698;28;20113;-50
2024/03/10 06:42:22;;;;;;;54.33;29.13;;;6.80;99.90;;;;;;5058302;28;20017;-49
2024/03/10 06:44:49;;;;;;;57.35;30.23;;;6.90;99.90;;;;;;5057015;28;20394;-52
2024/03/10 06:47:14;;;;;;;49.95;26.73;;;7.20;99.60;;;;;;5058490;28;20024;-48
2024/03/10 06:49:40;;;;;;;56.22;27.77;;;7.20;97.40;;;;;;5062761;28;20111;-44
2024/03/10 06:52:06;;;;;;;54.30;28.30;;;7.50;96.60;;;;;;5062030;28;20025;-47
2024/03/10 06:54:31;;;;;;;54.75;30.38;;;7.90;95.70;;;;;;5059813;28;20029;-48
2024/03/10 06:56:57;;;;;;;52.33;27.65;;;8.10;94.30;;;;;;5062194;28;20036;-45
2024/03/10 06:59:23;;;;;;;50.10;28.10;;;8.40;92.90;;;;;;5061693;28;20544;-44
2024/03/10 07:01:48;;;;;;;53.85;30.75;;;8.70;91.80;;;;;;5062297;28;20035;-48
2024/03/10 07:04:14;;;;;;;54.83;29.38;;;8.90;90.70;;;;;;5063865;28;20028;-46
2024/03/10 07:06:40;;;;;;;55.17;29.98;;;9.10;90.00;;;;;;5062183;28;20025;-48
2024/03/10 07:09:09;;;;;;;50.13;27.30;;;9.20;87.30;;;;;;5061866;28;20016;-45
2024/03/10 07:11:35;;;;;;;48.75;28.77;;;9.20;85.50;;;;;;5057461;28;20048;-46
2024/03/10 07:14:01;;;;;;;49.05;28.25;;;9.50;85.20;;;;;;5055930;28;20032;-47
2024/03/10 07:16:27;;;;;;;50.45;29.25;;;9.60;84.70;;;;;;5055771;28;20029;-47
2024/03/10 07:18:52;;;;;;;45.08;25.95;;;9.70;84.00;;;;;;5061613;28;20024;-46
2024/03/10 07:21:18;;;;;;;42.70;24.83;;;10.00;83.40;;;;;;5056082;28;20059;-45
2024/03/10 07:23:43;;;;;;;44.60;26.50;;;10.20;82.70;;;;;;5056937;28;20103;-45
2024/03/10 07:26:09;;;;;;;51.35;30.17;;;10.30;80.10;;;;;;5061770;28;20044;-44
2024/03/10 07:28:35;;;;;;;52.60;28.88;;;10.50;78.00;;;;;;5059626;28;20437;-45
2024/03/10 07:31:01;;;;;;;47.50;27.48;;;10.50;76.20;;;;;;5059537;28;20020;-46
2024/03/10 07:33:26;;;;;;;52.33;28.35;;;10.50;75.00;;;;;;5061099;28;20044;-45
2024/03/10 07:35:52;;;;;;;46.95;27.63;;;10.60;75.10;;;;;;5063604;28;20103;-46
2024/03/10 07:38:19;;;;;;;47.20;27.92;;;10.80;75.60;;;;;;5061059;28;20051;-45
2024/03/10 07:40:44;;;;;;;50.47;28.52;;;10.70;72.90;;;;;;5058058;28;20036;-50
2024/03/10 07:43:09;;;;;;;52.65;28.20;;;10.70;73.20;;;;;;5061477;28;20078;-46
2024/03/10 07:45:35;;;;;;;47.15;27.80;;;10.80;72.60;;;;;;5059293;28;20035;-46
2024/03/10 07:48:03;;;;;;;48.45;26.67;;;10.90;72.60;;;;;;5061423;28;20048;-45
2024/03/10 07:50:29;;;;;;;53.15;29.15;;;11.00;72.20;;;;;;5061234;28;20020;-46
2024/03/10 07:52:54;;;;;;;50.75;28.70;;;10.80;71.70;;;;;;5062923;28;20029;-45
2024/03/10 07:55:21;;;;;;;46.67;27.00;;;10.70;71.10;;;;;;5061246;28;20039;-47
2024/03/10 07:57:48;;;;;;;49.97;28.20;;;10.60;72.10;;;;;;5060622;28;20115;-49
2024/03/10 08:00:20;;;;;;;48.47;27.77;;;10.50;72.20;;;;;;5060102;28;20078;-47
2024/03/10 08:02:45;;;;;;;49.35;27.27;;;10.30;72.20;;;;;;5060395;28;20056;-46
2024/03/10 08:05:12;;;;;;;52.25;28.40;;;10.10;73.40;;;;;;5060944;28;20044;-49
2024/03/10 08:07:38;;;;;;;46.83;27.35;;;9.90;73.40;;;;;;5060827;28;20082;-46
2024/03/10 08:10:06;;;;;;;50.63;28.98;;;9.90;74.10;;;;;;5060491;28;20044;-45
2024/03/10 08:12:32;;;;;;;50.22;28.00;;;9.90;74.30;;;;;;5062195;28;20043;-47
2024/03/10 08:14:57;;;;;;;45.55;26.45;;;9.80;74.40;;;;;;5060974;28;20884;-45
2024/03/10 08:17:23;;;;;;;48.33;26.67;;;9.90;74.60;;;;;;5056434;28;20111;-46
2024/03/10 08:19:48;;;;;;;47.22;28.67;;;9.90;74.40;;;;;;5056619;28;20040;-45
2024/03/10 08:22:13;;;;;;;45.65;27.77;;;9.90;75.00;;;;;;5055959;28;20039;-49
2024/03/10 08:24:39;;;;;;;47.28;26.95;;;9.90;74.00;;;;;;5059941;28;20386;-52
2024/03/10 08:27:08;;;;;;;48.97;27.45;;;9.80;74.90;;;;;;5062434;28;20036;-46
2024/03/10 08:29:33;;;;;;;51.30;29.35;;;10.00;75.40;;;;;;5061941;28;20498;-49
2024/03/10 08:31:59;;;;;;;47.72;26.95;;;10.00;74.40;;;;;;5060165;28;20054;-46
2024/03/10 08:34:26;;;;;;;52.47;29.05;;;10.40;74.60;;;;;;5060065;28;20036;-44
2024/03/10 08:36:52;;;;;;;49.38;27.00;;;10.70;73.50;;;;;;5060185;28;20021;-46
2024/03/10 08:39:19;;;;;;;49.35;28.63;;;11.00;73.30;;;;;;5054369;28;20543;-44
2024/03/10 08:41:45;;;;;;;45.90;26.38;;;11.20;71.70;;;;;;5054505;28;20025;-46
2024/03/10 08:44:11;;;;;;;44.10;25.55;;;11.30;70.80;;;;;;5062095;28;20033;-44
2024/03/10 08:46:37;;;;;;;47.22;27.55;;;11.40;71.40;;;;;;5056282;28;20478;-46
2024/03/10 08:49:02;;;;;;;45.15;25.92;;;11.70;71.90;;;;;;5059950;28;20047;-44
2024/03/10 08:51:29;;;;;;;44.17;26.30;;;11.90;71.60;;;;;;5059833;28;20421;-45
2024/03/10 08:53:54;;;;;;;42.63;25.25;;;12.10;70.10;;;;;;5059942;28;20524;-45
2024/03/10 08:56:20;;;;;;;45.38;27.73;;;12.10;69.80;;;;;;5059801;28;20028;-46
2024/03/10 08:58:45;;;;;;;40.67;24.88;;;12.20;68.90;;;;;;5061159;28;20024;-45
2024/03/10 09:01:11;;;;;;;38.53;24.50;;;12.30;68.50;;;;;;5055557;28;20016;-45
2024/03/10 09:03:38;;;;;;;42.47;26.88;;;12.50;68.50;;;;;;5059507;28;21055;-45
2024/03/10 09:06:04;;;;;;;43.97;26.23;;;12.80;67.20;;;;;;5059936;28;20368;-46
2024/03/10 09:08:30;;;;;;;37.35;23.88;;;12.90;66.30;;;;;;5059378;28;20020;-44
2024/03/10 09:10:57;;;;;;;38.55;25.65;;;13.00;66.50;;;;;;5059399;28;20048;-48
2024/03/10 09:13:22;;;;;;;39.33;25.15;;;13.30;65.90;;;;;;5055193;28;20033;-45
2024/03/10 09:15:48;;;;;;;36.85;23.48;;;13.50;64.00;;;;;;5061413;28;20052;-48
2024/03/10 09:18:13;;;;;;;35.75;23.17;;;13.60;64.00;;;;;;5059585;28;20036;-46
2024/03/10 09:20:40;;;;;;;45.72;27.83;;;13.70;62.70;;;;;;5059299;28;20409;-46
2024/03/10 09:23:05;;;;;;;41.80;24.73;;;13.90;60.90;;;;;;5059347;28;20107;-46
2024/03/10 09:25:31;;;;;;;39.38;25.75;;;14.00;61.00;;;;;;5059368;28;20046;-48
2024/03/10 09:27:57;;;;;;;33.33;22.05;;;14.00;60.00;;;;;;5061087;28;20020;-48
2024/03/10 09:30:24;;;;;;;40.92;25.23;;;14.10;60.90;;;;;;5057150;28;20066;-45
2024/03/10 09:32:50;;;;;;;42.53;26.67;;;14.10;57.90;;;;;;5059156;28;20032;-45
2024/03/10 09:35:35;;;;;;;40.63;27.17;;;14.00;58.10;;;;;;5059308;28;20486;-46
2024/03/10 09:38:04;;;;;;;39.70;25.67;;;13.90;57.10;;;;;;5056394;28;20074;-46
2024/03/10 09:40:30;;;;;;;40.97;24.40;;;13.70;57.90;;;;;;5055970;28;20394;-46
2024/03/10 09:42:59;;;;;;;38.78;24.05;;;13.80;58.00;;;;;;5057026;28;20021;-45
2024/03/10 09:45:27;;;;;;;34.58;23.33;;;13.80;57.40;;;;;;5060954;28;20367;-49
2024/03/10 09:47:53;;;;;;;46.28;28.08;;;13.80;58.50;;;;;;5058989;28;20788;-46
2024/03/10 09:50:23;;;;;;;39.95;26.02;;;13.90;57.30;;;;;;5059144;28;20036;-47
2024/03/10 09:52:53;;;;;;;41.85;25.92;;;13.80;57.50;;;;;;5058951;28;20024;-46
2024/03/10 09:55:20;;;;;;;38.03;22.67;;;13.90;57.10;;;;;;5058421;28;20437;-45
2024/03/10 09:57:53;;;;;;;36.08;23.00;;;13.90;57.80;;;;;;5054616;28;20505;-45
2024/03/10 10:00:25;;;;;;;37.40;23.52;;;14.10;58.60;;;;;;5058526;28;20029;-47
2024/03/10 10:03:00;;;;;;;38.75;25.13;;;14.20;57.50;;;;;;5056884;28;20482;-49
2024/03/10 10:05:29;;;;;;;38.30;24.13;;;14.10;56.30;;;;;;5058778;28;20021;-48
2024/03/10 10:07:57;;;;;;;43.78;25.58;;;14.10;55.60;;;;;;5057358;28;20383;-47
2024/03/10 10:10:23;;;;;;;41.38;26.70;;;14.00;56.10;;;;;;5049340;28;20041;-46
2024/03/10 10:12:53;;;;;;;42.20;26.20;;;14.10;55.40;;;;;;5053270;28;20420;-45
2024/03/10 10:15:22;;;;;;;37.05;24.15;;;13.90;55.70;;;;;;5056721;28;20078;-44
2024/03/10 10:17:55;;;;;;;39.83;24.70;;;13.60;56.20;;;;;;5054654;28;20777;-45
2024/03/10 10:20:28;;;;;;;35.72;22.98;;;13.50;56.70;;;;;;5055658;28;20494;-44
2024/03/10 10:22:58;;;;;;;33.10;21.55;;;13.50;57.50;;;;;;5052302;28;20107;-45
2024/03/10 10:25:23;;;;;;;43.75;24.92;;;13.60;57.70;;;;;;5056476;28;20510;-44
2024/03/10 10:27:50;;;;;;;35.83;22.42;;;13.40;56.90;;;;;;5058179;28;20025;-48
2024/03/10 10:30:28;;;;;;;44.45;24.42;;;13.30;57.30;;;;;;5057957;28;20585;-47
2024/03/10 10:33:07;;;;;;;40.17;25.67;;;13.20;57.40;;;;;;5056555;28;20094;-44
2024/03/10 10:35:34;;;;;;;43.28;26.48;;;13.20;57.70;;;;;;5054512;28;20053;-47
2024/03/10 10:38:12;;;;;;;41.97;25.60;;;13.10;57.70;;;;;;5062276;28;20036;-44
2024/03/10 10:40:44;;;;;;;42.55;26.13;;;12.90;57.90;;;;;;5052448;28;20112;-44
2024/03/10 10:43:12;;;;;;;39.50;24.67;;;12.80;58.60;;;;;;5062329;28;20431;-46
2024/03/10 10:45:38;;;;;;;41.83;25.95;;;12.60;59.10;;;;;;5062357;28;20983;-44
2024/03/10 10:48:07;;;;;;;42.50;23.40;;;12.60;59.20;;;;;;5062133;28;20085;-48
2024/03/10 10:50:33;;;;;;;45.63;26.13;;;12.60;59.70;;;;;;5061883;28;20024;-48
2024/03/10 10:52:59;;;;;;;38.80;22.52;;;12.60;60.00;;;;;;5062206;28;20398;-45
2024/03/10 10:55:27;;;;;;;40.80;22.98;;;12.70;60.00;;;;;;5062233;28;20059;-49
2024/03/10 10:58:03;;;;;;;41.90;25.27;;;12.70;60.00;;;;;;5061956;28;20024;-44
2024/03/10 11:00:29;;;;;;;43.58;26.42;;;12.80;59.90;;;;;;5061843;28;20386;-45
2024/03/10 11:03:13;;;;;;;46.60;26.27;;;12.70;60.00;;;;;;5061703;28;20119;-44
2024/03/10 11:05:40;;;;;;;42.72;24.77;;;12.80;60.20;;;;;;5060474;28;20025;-45
2024/03/10 11:08:06;;;;;;;43.97;25.75;;;12.80;60.40;;;;;;5058020;28;20021;-45
2024/03/10 11:10:46;;;;;;;40.97;23.27;;;12.90;60.10;;;;;;5061831;28;20049;-45
2024/03/10 11:13:13;;;;;;;36.13;22.77;;;13.00;59.90;;;;;;5061528;28;20036;-48
2024/03/10 11:15:40;;;;;;;33.78;21.13;;;13.10;59.70;;;;;;5061975;28;20082;-47
2024/03/10 11:18:22;;;;;;;41.35;24.23;;;13.20;59.50;;;;;;5061681;28;20025;-45
2024/03/10 11:20:49;;;;;;;36.75;22.10;;;13.30;59.20;;;;;;5063568;28;20436;-45
2024/03/10 11:23:21;;;;;;;36.17;22.50;;;13.30;58.40;;;;;;5059226;28;20129;-45
2024/03/10 11:25:50;;;;;;;35.58;20.42;;;13.10;58.00;;;;;;5061235;28;20578;-47
2024/03/10 11:28:20;;;;;;;36.25;20.95;;;13.10;58.50;;;;;;5061244;28;20016;-46
2024/03/10 11:30:45;;;;;;;34.65;22.25;;;13.10;58.90;;;;;;5061197;28;20028;-44
2024/03/10 11:33:13;;;;;;;37.13;21.08;;;13.20;58.40;;;;;;5053179;28;20044;-44
2024/03/10 11:35:38;;;;;;;32.05;20.20;;;13.30;58.20;;;;;;5061095;28;20032;-45
2024/03/10 11:38:04;;;;;;;30.77;20.20;;;13.40;57.40;;;;;;5057120;28;20101;-46
2024/03/10 11:40:30;;;;;;;32.88;20.08;;;13.40;56.80;;;;;;5058660;28;20028;-47
2024/03/10 11:43:00;;;;;;;29.88;18.00;;;13.40;56.50;;;;;;5060990;28;20017;-44
2024/03/10 11:45:26;;;;;;;33.25;20.67;;;13.40;56.70;;;;;;5061282;28;20482;-44
2024/03/10 11:47:54;;;;;;;28.58;18.00;;;13.40;56.30;;;;;;5061237;28;20582;-44
2024/03/10 11:50:20;;;;;;;31.00;19.13;;;13.40;56.50;;;;;;5061115;28;20027;-46
2024/03/10 11:52:45;;;;;;;30.83;18.13;;;13.40;56.70;;;;;;5060935;28;20029;-43
2024/03/10 11:55:13;;;;;;;28.85;18.67;;;13.40;56.70;;;;;;5061092;28;20093;-46
2024/03/10 11:57:40;;;;;;;32.22;18.77;;;13.30;56.90;;;;;;5060714;28;20016;-44
2024/03/10 12:00:14;;;;;;;30.27;19.25;;;13.30;56.70;;;;;;5062932;28;20028;-44
2024/03/10 12:02:40;;;;;;;31.27;19.05;;;13.30;56.90;;;;;;5060571;28;20032;-45
2024/03/10 12:05:06;;;;;;;32.95;20.10;;;13.20;57.00;;;;;;5058634;28;20040;-44
2024/03/10 12:07:33;;;;;;;32.08;19.67;;;13.10;56.90;;;;;;5060776;28;20121;-44
2024/03/10 12:09:59;;;;;;;30.05;17.60;;;13.00;56.90;;;;;;5060550;28;20399;-46
2024/03/10 12:12:30;;;;;;;32.00;19.42;;;13.00;57.40;;;;;;5060790;28;20024;-44
2024/03/10 12:14:56;;;;;;;30.25;17.48;;;12.90;57.50;;;;;;5060387;28;20493;-45
2024/03/10 12:17:22;;;;;;;29.83;19.30;;;13.00;57.90;;;;;;5060721;28;20055;-46
2024/03/10 12:19:48;;;;;;;31.67;18.58;;;12.90;57.50;;;;;;5053527;28;20032;-44
2024/03/10 12:22:14;;;;;;;30.55;17.33;;;13.00;57.30;;;;;;5060690;28;20028;-46
2024/03/10 12:24:43;;;;;;;31.52;19.08;;;13.00;57.60;;;;;;5062112;28;20013;-46
2024/03/10 12:27:09;;;;;;;31.75;19.65;;;13.00;57.80;;;;;;5058273;28;20032;-46
2024/03/10 12:29:50;;;;;;;27.60;18.08;;;12.90;57.30;;;;;;5060093;28;20061;-44
2024/03/10 12:32:16;;;;;;;29.05;17.80;;;12.90;57.40;;;;;;5054393;28;20055;-46
2024/03/10 12:34:41;;;;;;;31.30;18.85;;;12.90;57.70;;;;;;5059988;28;20059;-46
2024/03/10 12:37:07;;;;;;;29.30;18.45;;;12.90;57.70;;;;;;5056063;28;20040;-44
2024/03/10 12:39:33;;;;;;;31.50;18.75;;;12.80;57.50;;;;;;5052606;28;20028;-45
2024/03/10 12:41:59;;;;;;;28.23;17.83;;;12.80;57.70;;;;;;5060194;28;20486;-45
2024/03/10 12:44:24;;;;;;;27.15;16.83;;;12.70;57.90;;;;;;5059931;28;20069;-46
2024/03/10 12:46:50;;;;;;;30.20;17.90;;;12.80;58.40;;;;;;5059531;28;20028;-44
2024/03/10 12:49:16;;;;;;;29.55;18.27;;;12.80;58.20;;;;;;5061772;28;20066;-47
2024/03/10 12:51:41;;;;;;;28.17;17.17;;;12.70;57.80;;;;;;5052510;28;20091;-44
2024/03/10 12:54:07;;;;;;;30.60;18.95;;;12.70;58.10;;;;;;5055421;28;20040;-45
2024/03/10 12:56:33;;;;;;;25.88;16.75;;;12.70;58.10;;;;;;5056263;28;20032;-46